Time;durP1;ratioP1;P1;durP2;ratioP2;P2;SDS_P1;SDS_P2;PMS_P1;PMS_P2;Temp;Humidity;BMP_temperature;BMP_pressure;BME280_temperature;BME280_humidity;BME280_pressure;Samples;Min_cycle;Max_cycle;Signal;HPM_P1;HPM_P2
2022/04/17 00:00:35;;;;;;;10.70;4.80;;;;;;;2.14;54.63;101566.05;130426;1268;108822;-79
2022/04/17 00:03:45;;;;;;;8.40;4.70;;;;;;;2.10;54.81;101569.58;130475;1268;108694;-78
2022/04/17 00:06:50;;;;;;;9.00;4.50;;;;;;;2.08;54.78;101567.72;130456;1268;108797;-79
2022/04/17 00:09:56;;;;;;;8.90;4.60;;;;;;;2.05;54.76;101564.86;130405;1268;108795;-80
2022/04/17 00:13:01;;;;;;;7.60;4.30;;;;;;;2.02;54.88;101564.46;130474;1268;107040;-79
2022/04/17 00:16:07;;;;;;;7.90;4.40;;;;;;;2.00;54.86;101567.38;130443;1268;108439;-79
2022/04/17 00:19:13;;;;;;;6.90;4.00;;;;;;;1.97;54.85;101564.00;130445;1268;106850;-78
2022/04/17 00:22:18;;;;;;;9.60;4.40;;;;;;;1.93;54.92;101562.92;130435;1268;109062;-79
2022/04/17 00:25:24;;;;;;;8.60;4.60;;;;;;;1.89;54.81;101553.62;130204;1268;305601;-80
2022/04/17 00:28:29;;;;;;;9.50;5.30;;;;;;;1.80;54.90;101552.61;130458;1268;108742;-79
2022/04/17 00:31:35;;;;;;;7.20;4.30;;;;;;;1.75;55.02;101552.79;130400;1266;108966;-78
2022/04/17 00:34:41;;;;;;;8.10;4.70;;;;;;;1.69;54.91;101552.37;130498;1268;108967;-79
2022/04/17 00:37:46;;;;;;;8.30;4.10;;;;;;;1.66;55.13;101552.68;130689;1268;108783;-80
2022/04/17 00:40:53;;;;;;;10.00;5.50;;;;;;;1.65;55.25;101554.27;130677;1268;108901;-79
2022/04/17 00:43:59;;;;;;;11.20;5.80;;;;;;;1.63;55.28;101549.10;130460;1268;108636;-78
2022/04/17 00:47:05;;;;;;;12.50;6.20;;;;;;;1.61;55.37;101548.66;130433;1268;107667;-79
2022/04/17 00:50:12;;;;;;;12.80;5.80;;;;;;;1.57;55.31;101541.80;130431;1268;108695;-80
2022/04/17 00:53:19;;;;;;;10.40;5.50;;;;;;;1.51;55.32;101542.55;130489;1268;108637;-79
2022/04/17 00:56:25;;;;;;;9.40;5.40;;;;;;;1.46;55.36;101539.13;130417;1267;108906;-80
2022/04/17 00:59:32;;;;;;;9.80;5.50;;;;;;;1.41;55.54;101540.34;130469;1267;107823;-80
2022/04/17 01:02:37;;;;;;;9.20;5.30;;;;;;;1.41;55.63;101537.73;130477;1268;107707;-78
2022/04/17 01:05:46;;;;;;;9.00;5.30;;;;;;;1.41;55.63;101534.05;130374;1268;109170;-79
2022/04/17 01:08:52;;;;;;;9.20;5.30;;;;;;;1.39;55.67;101535.33;130459;1268;108896;-79
2022/04/17 01:11:58;;;;;;;8.40;5.50;;;;;;;1.38;55.62;101532.42;130406;1268;108740;-80
2022/04/17 01:15:04;;;;;;;8.00;4.50;;;;;;;1.34;55.79;101531.34;130399;1268;108943;-80
2022/04/17 01:18:10;;;;;;;6.50;4.60;;;;;;;1.30;55.76;101536.06;130476;1268;108720;-78
2022/04/17 01:21:20;;;;;;;8.60;5.40;;;;;;;1.28;55.85;101531.09;130432;1267;108766;-79
2022/04/17 01:27:49;;;;;;;8.40;5.00;;;;;;;1.23;56.02;101526.88;130460;1268;109102;-80
2022/04/17 01:30:56;;;;;;;9.10;5.40;;;;;;;1.20;56.08;101523.17;130662;1267;106617;-78
2022/04/17 01:34:01;;;;;;;8.90;5.40;;;;;;;1.19;56.13;101517.23;130689;1268;109124;-80
2022/04/17 01:37:07;;;;;;;9.30;5.40;;;;;;;1.17;56.26;101514.67;130703;1267;108777;-79
2022/04/17 01:40:14;;;;;;;8.00;5.60;;;;;;;1.17;56.24;101514.84;130750;1266;108892;-80
2022/04/17 01:43:20;;;;;;;8.20;5.40;;;;;;;1.19;56.43;101512.67;130695;1268;108614;-80
2022/04/17 01:46:25;;;;;;;9.20;5.30;;;;;;;1.21;56.55;101515.27;130524;1268;108627;-78
2022/04/17 01:49:31;;;;;;;10.10;5.90;;;;;;;1.22;56.46;101512.55;130569;1267;108815;-78
2022/04/17 01:52:36;;;;;;;11.80;6.60;;;;;;;1.23;56.55;101506.04;130545;1268;108697;-78
2022/04/17 01:55:42;;;;;;;11.30;6.20;;;;;;;1.25;56.57;101508.06;130534;1268;108856;-78
2022/04/17 01:58:47;;;;;;;9.00;6.00;;;;;;;1.24;56.84;101503.02;130546;1268;109170;-80
2022/04/17 02:01:54;;;;;;;8.70;5.30;;;;;;;1.21;57.09;101499.82;130603;1268;108916;-79
2022/04/17 02:05:00;;;;;;;10.30;5.70;;;;;;;1.16;57.58;101497.52;130609;1267;108832;-79
2022/04/17 02:08:06;;;;;;;11.20;5.80;;;;;;;1.15;57.57;101499.67;130532;1268;108926;-79
2022/04/17 02:11:12;;;;;;;10.50;5.70;;;;;;;1.17;58.13;101497.33;130585;1268;108966;-79
2022/04/17 02:14:18;;;;;;;10.90;5.60;;;;;;;1.17;57.78;101495.94;130530;1267;109171;-80
2022/04/17 02:17:23;;;;;;;8.70;5.80;;;;;;;1.19;57.79;101494.63;130550;1268;108730;-79
2022/04/17 02:20:29;;;;;;;9.20;5.20;;;;;;;1.21;57.71;101492.77;130518;1268;107355;-79
2022/04/17 02:23:34;;;;;;;8.70;5.40;;;;;;;1.26;57.75;101494.18;130540;1268;107609;-78
2022/04/17 02:26:40;;;;;;;9.60;5.30;;;;;;;1.26;57.76;101493.09;130545;1268;108663;-77
2022/04/17 02:29:46;;;;;;;8.30;4.90;;;;;;;1.30;57.74;101495.23;130542;1268;108869;-80
2022/04/17 02:32:51;;;;;;;9.60;5.20;;;;;;;1.36;57.69;101496.90;130533;1268;108809;-78
2022/04/17 02:35:57;;;;;;;8.40;4.10;;;;;;;1.45;57.68;101496.17;130577;1268;108814;-78
2022/04/17 02:39:03;;;;;;;10.60;5.40;;;;;;;1.52;57.68;101493.77;130564;1268;108707;-79
2022/04/17 02:42:08;;;;;;;9.70;5.40;;;;;;;1.59;57.65;101499.64;130567;1268;108643;-78
2022/04/17 02:45:14;;;;;;;8.30;5.10;;;;;;;1.64;57.58;101498.91;130541;1268;108686;-79
2022/04/17 02:48:20;;;;;;;9.60;4.70;;;;;;;1.69;57.65;101500.96;130548;1268;108624;-79
2022/04/17 02:51:25;;;;;;;8.80;5.00;;;;;;;1.71;57.74;101501.05;130468;1268;108563;-78
2022/04/17 02:54:31;;;;;;;9.70;5.30;;;;;;;1.68;57.98;101496.97;130545;1268;108935;-79
2022/04/17 02:57:36;;;;;;;9.10;5.30;;;;;;;1.65;58.18;101500.60;130448;1267;107597;-79
2022/04/17 03:07:24;;;;;;;10.60;6.10;;;;;;;1.47;58.79;101496.27;130559;1266;108710;-79
2022/04/17 03:10:30;;;;;;;11.90;6.20;;;;;;;1.40;59.39;101497.25;130572;1268;108121;-80
2022/04/17 03:13:36;;;;;;;9.00;5.70;;;;;;;1.29;59.35;101491.39;130741;1268;108602;-79
2022/04/17 03:16:41;;;;;;;9.40;6.10;;;;;;;1.20;59.55;101495.09;130738;1268;108790;-79
2022/04/17 03:19:47;;;;;;;8.80;5.20;;;;;;;1.13;59.52;101498.19;130521;1267;109009;-77
2022/04/17 03:22:52;;;;;;;10.00;5.40;;;;;;;1.04;59.56;101501.33;130552;1268;108798;-80
2022/04/17 03:25:58;;;;;;;9.90;5.60;;;;;;;0.99;59.58;101500.85;130497;1268;108637;-79
2022/04/17 03:29:03;;;;;;;10.30;6.00;;;;;;;0.97;59.59;101501.64;130474;1268;108853;-78
2022/04/17 03:32:10;;;;;;;9.60;5.50;;;;;;;0.93;59.68;101502.14;130440;1267;108963;-78
2022/04/17 03:35:17;;;;;;;9.90;5.80;;;;;;;0.87;60.07;101504.48;130547;1268;108943;-78
2022/04/17 03:38:23;;;;;;;9.90;5.90;;;;;;;0.81;59.96;101507.35;130564;1268;108660;-78
2022/04/17 03:41:28;;;;;;;20.00;12.20;;;;;;;0.76;61.11;101506.48;130529;1269;110909;-79
2022/04/17 03:44:34;;;;;;;11.70;6.60;;;;;;;0.69;61.45;101505.51;130521;1270;108683;-79
2022/04/17 03:47:40;;;;;;;12.10;5.50;;;;;;;0.65;61.98;101500.58;130517;1268;108668;-79
2022/04/17 03:50:47;;;;;;;11.20;5.50;;;;;;;0.67;62.00;101498.08;130530;1268;108679;-78
2022/04/17 03:53:53;;;;;;;10.80;5.50;;;;;;;0.71;61.76;101501.75;130582;1268;108852;-78
2022/04/17 03:56:58;;;;;;;10.00;6.00;;;;;;;0.78;61.94;101498.16;130559;1268;107587;-78
2022/04/17 04:00:07;;;;;;;9.70;5.00;;;;;;;0.81;62.17;101501.22;130649;1268;108669;-79
2022/04/17 04:03:17;;;;;;;9.40;5.50;;;;;;;0.78;61.71;101499.20;130735;1268;108678;-80
2022/04/17 04:06:22;;;;;;;10.60;5.70;;;;;;;0.82;61.28;101502.04;130731;1268;108834;-77
2022/04/17 04:09:28;;;;;;;9.30;5.80;;;;;;;0.83;62.28;101501.66;130701;1267;108678;-81
2022/04/17 04:12:33;;;;;;;11.60;6.50;;;;;;;0.79;62.44;101503.38;130717;1268;106904;-78
2022/04/17 04:15:38;;;;;;;15.30;8.20;;;;;;;0.75;63.31;101504.23;130553;1268;108866;-80
2022/04/17 04:18:44;;;;;;;11.80;7.00;;;;;;;0.73;63.18;101502.20;130517;1268;108025;-77
2022/04/17 04:21:49;;;;;;;16.10;7.30;;;;;;;0.74;62.51;101504.98;130604;1268;107194;-77
2022/04/17 04:24:55;;;;;;;8.40;5.80;;;;;;;0.75;63.61;101505.08;130609;1267;108714;-78
2022/04/17 04:31:23;;;;;;;12.30;6.70;;;;;;;0.86;64.62;101507.14;130570;1268;108772;-79
2022/04/17 04:34:29;;;;;;;11.50;5.50;;;;;;;0.98;64.37;101506.65;130521;1268;108680;-79
2022/04/17 04:37:34;;;;;;;20.90;9.30;;;;;;;1.15;65.33;101503.91;130560;1268;108802;-80
2022/04/17 04:40:40;;;;;;;11.10;6.60;;;;;;;1.30;63.85;101499.27;130585;1268;109020;-79
2022/04/17 04:43:45;;;;;;;10.20;6.40;;;;;;;1.46;65.15;101503.33;130574;1268;108605;-77
2022/04/17 04:46:51;;;;;;;10.20;6.30;;;;;;;1.59;63.41;101506.80;130581;1268;108898;-80
2022/04/17 04:49:56;;;;;;;13.90;7.20;;;;;;;1.70;64.32;101507.07;130540;1268;108808;-77
2022/04/17 04:53:02;;;;;;;13.60;8.70;;;;;;;1.74;64.48;101511.78;130505;1266;108678;-77
2022/04/17 04:56:09;;;;;;;14.30;9.40;;;;;;;1.76;64.37;101511.02;130509;1268;108737;-79
2022/04/17 04:59:14;;;;;;;13.80;8.40;;;;;;;1.81;64.10;101515.36;130538;1268;108859;-80
2022/04/17 05:02:20;;;;;;;12.80;7.90;;;;;;;1.87;64.65;101513.33;130645;1268;107712;-77
2022/04/17 05:05:25;;;;;;;14.70;8.10;;;;;;;1.92;65.27;101513.99;130739;1267;108640;-80
2022/04/17 05:08:31;;;;;;;12.30;7.60;;;;;;;2.01;65.02;101513.27;130726;1268;108515;-77
2022/04/17 05:11:37;;;;;;;20.00;11.90;;;;;;;2.11;65.42;101516.16;130657;1268;108701;-77
2022/04/17 05:14:45;;;;;;;11.70;6.70;;;;;;;2.26;64.49;101516.72;130781;1265;108705;-80
2022/04/17 05:17:51;;;;;;;11.70;7.30;;;;;;;2.40;64.57;101521.38;131009;1268;108681;-78
2022/04/17 05:20:56;;;;;;;10.40;6.50;;;;;;;2.47;64.18;101521.77;130865;1268;108725;-79
2022/04/17 05:24:02;;;;;;;10.40;6.60;;;;;;;2.54;64.53;101521.43;130557;1268;108699;-78
2022/04/17 05:27:07;;;;;;;12.90;8.50;;;;;;;2.58;64.10;101527.92;130525;1268;108770;-77
2022/04/17 05:30:13;;;;;;;11.90;7.00;;;;;;;2.63;64.18;101527.50;130509;1268;108607;-79
2022/04/17 05:33:22;;;;;;;18.00;9.50;;;;;;;2.66;64.84;101524.93;130571;1268;106760;-79
2022/04/17 05:36:27;;;;;;;9.60;6.00;;;;;;;2.66;64.60;101525.83;130573;1268;109185;-78
2022/04/17 05:39:33;;;;;;;12.00;6.80;;;;;;;2.66;65.24;101525.45;130528;1267;108308;-79
2022/04/17 05:42:39;;;;;;;14.00;7.80;;;;;;;2.78;65.00;101520.52;130569;1268;108845;-78
2022/04/17 05:45:45;;;;;;;12.00;7.50;;;;;;;2.90;65.30;101518.71;130526;1268;108824;-79
2022/04/17 05:48:51;;;;;;;18.20;9.40;;;;;;;3.00;65.32;101520.02;130489;1268;109353;-78
2022/04/17 05:51:58;;;;;;;15.90;8.30;;;;;;;3.10;65.39;101521.61;130491;1267;109693;-78
2022/04/17 05:55:04;;;;;;;11.90;7.40;;;;;;;3.16;65.42;101520.98;130352;1268;107433;-78
2022/04/17 05:58:10;;;;;;;9.90;6.30;;;;;;;3.13;65.62;101522.89;130441;1268;108991;-79
2022/04/17 06:01:15;;;;;;;10.80;6.40;;;;;;;3.12;64.93;101523.46;130495;1268;109183;-80
2022/04/17 06:04:21;;;;;;;10.10;6.70;;;;;;;3.19;65.62;101521.75;130467;1268;108908;-79
2022/04/17 06:07:29;;;;;;;11.90;6.50;;;;;;;3.17;66.25;101519.38;130447;1268;108686;-79
2022/04/17 06:10:35;;;;;;;12.50;7.20;;;;;;;3.11;65.79;101517.18;130523;1268;108770;-80
2022/04/17 06:13:41;;;;;;;11.10;6.00;;;;;;;3.16;66.28;101517.13;130527;1268;108834;-78
2022/04/17 06:16:47;;;;;;;11.60;6.80;;;;;;;3.24;65.81;101515.15;130581;1268;108708;-78
2022/04/17 06:19:53;;;;;;;10.00;6.10;;;;;;;3.40;65.17;101512.44;130436;1268;108789;-79
2022/04/17 06:22:58;;;;;;;10.20;6.00;;;;;;;3.51;65.20;101514.70;130591;1268;108731;-80
2022/04/17 06:26:06;;;;;;;10.90;6.20;;;;;;;3.57;64.94;101514.23;130687;1268;108891;-79
2022/04/17 06:29:11;;;;;;;10.20;6.50;;;;;;;3.71;64.58;101514.95;130643;1268;108635;-80
2022/04/17 06:32:17;;;;;;;11.80;6.00;;;;;;;3.80;64.86;101520.14;130617;1268;107007;-79
2022/04/17 06:35:23;;;;;;;11.10;7.20;;;;;;;3.74;65.22;101517.23;130622;1268;108605;-79
2022/04/17 06:38:28;;;;;;;11.20;6.90;;;;;;;3.68;65.12;101513.15;130431;1268;108673;-80
2022/04/17 06:41:33;;;;;;;9.20;6.70;;;;;;;3.69;65.43;101509.20;130429;1268;108707;-80
2022/04/17 06:44:39;;;;;;;12.80;6.60;;;;;;;3.66;65.84;101505.14;130397;1268;108663;-79
2022/04/17 06:47:45;;;;;;;12.10;5.50;;;;;;;3.68;66.03;101506.45;130687;1268;107633;-79
2022/04/17 06:50:53;;;;;;;10.50;6.10;;;;;;;3.81;65.51;101508.05;130751;1268;108550;-80
2022/04/17 06:53:58;;;;;;;17.20;8.40;;;;;;;3.99;65.22;101499.79;130710;1268;109081;-80
2022/04/17 06:57:13;;;;;;;10.00;6.50;;;;;;;4.13;65.58;101500.98;130736;1266;108163;-79
2022/04/17 07:00:22;;;;;;;7.60;5.60;;;;;;;4.26;65.16;101497.30;130646;1267;108774;-80
2022/04/17 07:03:27;;;;;;;10.50;6.70;;;;;;;4.36;64.85;101492.90;130732;1268;108718;-79
2022/04/17 07:06:32;;;;;;;8.70;6.10;;;;;;;4.46;64.99;101493.05;130748;1267;108690;-79
2022/04/17 07:09:38;;;;;;;9.20;6.20;;;;;;;4.45;64.97;101495.75;130605;1268;107130;-78
2022/04/17 07:12:44;;;;;;;8.70;5.80;;;;;;;4.51;64.61;101494.70;130507;1268;108743;-79
2022/04/17 07:15:50;;;;;;;11.50;6.30;;;;;;;4.57;65.03;101497.42;130511;1267;108733;-80
2022/04/17 07:18:55;;;;;;;8.00;5.20;;;;;;;4.61;64.73;101495.92;130484;1268;109553;-80
2022/04/17 07:22:00;;;;;;;11.00;6.10;;;;;;;4.67;64.91;101494.92;130495;1268;108802;-80
2022/04/17 07:25:08;;;;;;;9.00;6.10;;;;;;;4.78;64.58;101493.77;130461;1268;107490;-79
2022/04/17 07:28:14;;;;;;;11.20;6.60;;;;;;;4.92;64.49;101491.40;130720;1268;108674;-80
2022/04/17 07:31:20;;;;;;;10.90;6.70;;;;;;;5.09;64.74;101487.30;130638;1268;108905;-80
2022/04/17 07:34:26;;;;;;;10.10;6.50;;;;;;;5.25;64.37;101490.39;130852;1268;108692;-79
2022/04/17 07:37:34;;;;;;;12.10;7.50;;;;;;;5.38;64.55;101487.74;130760;1267;108767;-79
2022/04/17 07:40:39;;;;;;;13.70;7.70;;;;;;;5.46;64.58;101486.19;130726;1268;108964;-79
2022/04/17 07:43:45;;;;;;;10.30;7.20;;;;;;;5.44;64.61;101486.48;130517;1267;108980;-80
2022/04/17 07:46:50;;;;;;;11.40;7.50;;;;;;;5.38;64.67;101488.08;130483;1265;109081;-80
2022/04/17 07:49:56;;;;;;;10.20;6.90;;;;;;;5.26;64.80;101482.96;130585;1268;107927;-79
2022/04/17 07:53:02;;;;;;;12.50;8.10;;;;;;;5.25;64.50;101484.58;130583;1268;108704;-79
2022/04/17 07:56:07;;;;;;;11.00;7.80;;;;;;;5.33;64.48;101483.79;130472;1266;108781;-80
2022/04/17 07:59:13;;;;;;;10.90;7.00;;;;;;;5.46;64.39;101484.80;130511;1268;106620;-79
2022/04/17 08:02:39;;;;;;;12.40;8.20;;;;;;;5.51;63.92;101480.11;130485;1266;108592;-80
2022/04/17 08:05:45;;;;;;;11.80;8.10;;;;;;;5.59;64.45;101478.41;130607;1268;108742;-77
2022/04/17 08:08:52;;;;;;;11.00;6.90;;;;;;;5.60;64.13;101475.87;130500;1267;108987;-79
2022/04/17 08:11:59;;;;;;;11.70;8.00;;;;;;;5.72;63.81;101474.26;130456;1267;108799;-78
2022/04/17 08:15:06;;;;;;;11.00;7.60;;;;;;;5.86;63.49;101472.54;130475;1268;108396;-79
2022/04/17 08:18:12;;;;;;;13.00;8.00;;;;;;;6.01;63.42;101467.43;130522;1267;108802;-79
2022/04/17 08:21:17;;;;;;;12.50;8.70;;;;;;;6.09;63.37;101471.68;130505;1268;108883;-79
2022/04/17 08:24:23;;;;;;;12.70;8.40;;;;;;;6.18;63.68;101466.05;130491;1268;108663;-79
2022/04/17 08:27:29;;;;;;;12.10;8.50;;;;;;;6.27;63.37;101465.09;130489;1266;108888;-79
2022/04/17 08:30:36;;;;;;;11.20;7.80;;;;;;;6.37;62.35;101470.52;130481;1268;108713;-79
2022/04/17 08:33:41;;;;;;;10.40;7.00;;;;;;;6.31;62.42;101462.41;130511;1267;107701;-78
2022/04/17 08:36:46;;;;;;;10.20;6.90;;;;;;;6.33;62.76;101465.26;130487;1268;108691;-78
2022/04/17 08:39:52;;;;;;;11.00;7.90;;;;;;;6.42;62.29;101469.13;130474;1268;109120;-76
2022/04/17 08:42:59;;;;;;;9.50;6.40;;;;;;;6.48;62.13;101466.08;130610;1268;108799;-77
2022/04/17 08:46:05;;;;;;;8.60;6.00;;;;;;;6.44;61.11;101469.70;130464;1267;108649;-80
2022/04/17 08:49:11;;;;;;;7.00;5.30;;;;;;;6.37;60.95;101466.30;130519;1268;108952;-80
2022/04/17 08:52:18;;;;;;;7.90;5.00;;;;;;;6.34;58.95;101464.73;130516;1268;109291;-77
2022/04/17 08:55:23;;;;;;;7.10;4.70;;;;;;;6.31;58.86;101462.25;130448;1268;108715;-79
2022/04/17 08:58:29;;;;;;;8.50;5.80;;;;;;;6.34;59.09;101459.59;130467;1268;108773;-79
2022/04/17 09:01:36;;;;;;;8.70;6.00;;;;;;;6.38;60.12;101451.19;130524;1265;108837;-78
2022/04/17 09:04:42;;;;;;;10.00;5.80;;;;;;;6.45;59.93;101445.95;130507;1267;108659;-78
2022/04/17 09:07:50;;;;;;;7.50;5.50;;;;;;;6.53;60.57;101442.09;130491;1268;107120;-78
2022/04/17 09:10:57;;;;;;;8.80;6.40;;;;;;;6.66;59.76;101437.23;130485;1266;108421;-79
2022/04/17 09:14:05;;;;;;;9.90;6.50;;;;;;;6.69;59.36;101432.75;130583;1268;108763;-78
2022/04/17 09:17:12;;;;;;;8.40;5.30;;;;;;;6.73;58.31;101427.26;130513;1268;108860;-78
2022/04/17 09:20:22;;;;;;;10.50;6.90;;;;;;;6.79;59.11;101424.33;130473;1268;108450;-79
2022/04/17 09:23:40;;;;;;;10.10;7.10;;;;;;;6.78;58.50;101418.77;130483;1267;108998;-79
2022/04/17 09:26:56;;;;;;;10.00;7.00;;;;;;;6.78;59.64;101412.56;130497;1268;108632;-78
2022/04/17 09:30:02;;;;;;;8.10;6.10;;;;;;;6.90;58.73;101409.48;130502;1266;108736;-79
2022/04/17 09:33:10;;;;;;;8.40;5.80;;;;;;;6.96;58.76;101404.50;130489;1268;108864;-78
2022/04/17 09:36:15;;;;;;;13.30;9.20;;;;;;;7.07;59.57;101396.48;130468;1267;108890;-78
2022/04/17 09:39:21;;;;;;;7.60;5.30;;;;;;;7.18;56.91;101396.13;130450;1268;108647;-79
2022/04/17 09:42:29;;;;;;;8.50;5.50;;;;;;;7.19;57.87;101393.41;130505;1266;108552;-79
2022/04/17 09:45:34;;;;;;;9.20;5.90;;;;;;;7.22;57.52;101384.17;130481;1268;108747;-79
2022/04/17 09:48:42;;;;;;;8.60;5.80;;;;;;;7.30;57.16;101378.35;130429;1268;109782;-79
2022/04/17 09:51:47;;;;;;;24.90;13.90;;;;;;;7.37;55.99;101371.48;130478;1267;107085;-77
2022/04/17 09:54:53;;;;;;;9.00;4.90;;;;;;;7.44;56.26;101365.35;130532;1267;107610;-78
2022/04/17 09:58:01;;;;;;;7.20;5.00;;;;;;;7.49;55.26;101360.23;130427;1268;109083;-79
2022/04/17 10:01:07;;;;;;;8.10;5.40;;;;;;;7.57;54.94;101359.33;130441;1268;108762;-78
2022/04/17 10:04:16;;;;;;;81.30;39.30;;;;;;;7.56;55.61;101352.67;130471;1268;108791;-78
2022/04/17 10:07:25;;;;;;;9.00;4.80;;;;;;;7.63;54.75;101346.98;130467;1266;108720;-78
2022/04/17 10:10:31;;;;;;;8.10;4.90;;;;;;;7.69;53.83;101345.17;130579;1266;108663;-78
2022/04/17 10:13:38;;;;;;;7.20;4.20;;;;;;;7.77;53.60;101342.87;130483;1268;108655;-78
2022/04/17 10:16:46;;;;;;;6.20;4.50;;;;;;;7.75;52.86;101342.48;130501;1266;108895;-79
2022/04/17 10:19:52;;;;;;;8.30;5.50;;;;;;;7.81;55.18;101335.45;130468;1268;108803;-77
2022/04/17 10:23:03;;;;;;;6.30;4.90;;;;;;;7.96;54.01;101332.85;130529;1268;108733;-79
2022/04/17 10:26:08;;;;;;;8.70;5.40;;;;;;;8.05;54.35;101329.91;130563;1267;106671;-78
2022/04/17 10:29:18;;;;;;;6.00;4.10;;;;;;;8.09;52.98;101327.82;130438;1268;108671;-78
2022/04/17 10:32:39;;;;;;;4.70;3.20;;;;;;;8.09;54.11;101317.38;130418;1267;108624;-79
2022/04/17 10:36:04;;;;;;;8.90;6.00;;;;;;;8.22;52.84;101315.19;130498;1268;108589;-79
2022/04/17 10:39:20;;;;;;;5.80;3.80;;;;;;;8.23;51.73;101311.20;130453;1268;108637;-78
2022/04/17 10:42:35;;;;;;;5.60;4.00;;;;;;;8.27;53.08;101307.20;130557;1266;108918;-78
2022/04/17 10:46:14;;;;;;;4.20;2.90;;;;;;;8.33;52.16;101309.64;130614;1266;108658;-78
2022/04/17 10:49:22;;;;;;;3.90;2.80;;;;;;;8.42;51.16;101303.33;130591;1268;108666;-78
2022/04/17 10:52:32;;;;;;;4.20;3.00;;;;;;;8.51;51.00;101302.85;130639;1266;109253;-78
2022/04/17 10:56:04;;;;;;;3.60;2.90;;;;;;;8.59;51.16;101293.55;130624;1268;107670;-78
2022/04/17 10:59:20;;;;;;;3.50;2.70;;;;;;;8.66;50.36;101290.57;130564;1268;108838;-77
2022/04/17 11:02:29;;;;;;;4.10;3.10;;;;;;;8.70;50.78;101284.59;130662;1268;106824;-76
2022/04/17 11:09:10;;;;;;;3.90;3.00;;;;;;;8.73;52.16;101272.63;130592;1268;109085;-77
2022/04/17 11:12:27;;;;;;;2.80;2.50;;;;;;;8.98;49.98;101268.44;130414;1266;108840;-77
2022/04/17 11:15:33;;;;;;;3.50;2.90;;;;;;;9.16;46.90;101269.17;130391;1268;108788;-78
2022/04/17 11:18:41;;;;;;;3.50;2.80;;;;;;;9.24;47.12;101263.59;130338;1267;108791;-75
2022/04/17 11:21:49;;;;;;;3.00;2.60;;;;;;;9.34;47.53;101260.30;130362;1268;108691;-76
2022/04/17 11:25:08;;;;;;;3.20;2.60;;;;;;;9.60;49.78;101244.95;130366;1268;108655;-79
2022/04/17 11:28:36;;;;;;;2.90;2.10;;;;;;;9.86;49.14;101243.02;130364;1268;108721;-77
2022/04/17 11:31:42;;;;;;;4.80;2.70;;;;;;;10.07;48.49;101235.80;130340;1268;108701;-75
2022/04/17 11:34:52;;;;;;;2.10;1.80;;;;;;;10.02;43.82;101237.11;130333;1268;108633;-77
2022/04/17 11:38:01;;;;;;;2.90;2.30;;;;;;;9.83;44.31;101230.27;130369;1268;108818;-76
2022/04/17 11:41:08;;;;;;;4.70;2.40;;;;;;;9.73;46.57;101226.27;130397;1268;108865;-76
2022/04/17 11:44:14;;;;;;;2.80;1.90;;;;;;;9.80;46.30;101221.12;130331;1267;108743;-78
2022/04/17 11:47:21;;;;;;;2.40;2.00;;;;;;;9.97;45.94;101222.23;130309;1268;108874;-76
2022/04/17 11:50:29;;;;;;;3.00;2.40;;;;;;;10.07;44.60;101217.71;130373;1268;108803;-78
2022/04/17 11:53:35;;;;;;;3.30;2.00;;;;;;;10.21;46.14;101215.63;130367;1268;108968;-78
2022/04/17 11:56:53;;;;;;;2.30;1.90;;;;;;;10.35;46.76;101202.20;130345;1268;108377;-78
2022/04/17 12:00:00;;;;;;;2.70;1.80;;;;;;;10.64;47.58;101199.27;130337;1268;108240;-77
2022/04/17 12:03:07;;;;;;;2.70;2.20;;;;;;;10.88;44.98;101190.86;130338;1268;108351;-77
2022/04/17 12:06:15;;;;;;;3.20;2.10;;;;;;;10.96;44.23;101187.30;130342;1268;108737;-77
2022/04/17 12:09:20;;;;;;;2.30;1.90;;;;;;;11.01;45.99;101182.98;130386;1268;108835;-77
2022/04/17 12:12:35;;;;;;;2.20;1.70;;;;;;;10.97;46.38;101182.94;130375;1267;107508;-77
2022/04/17 12:15:41;;;;;;;2.20;2.00;;;;;;;11.00;46.18;101175.02;130384;1268;108673;-77
2022/04/17 12:18:56;;;;;;;21.50;18.70;;;;;;;10.92;44.56;101172.48;130358;1267;108822;-77
2022/04/17 12:22:04;;;;;;;4.70;3.90;;;;;;;10.82;44.36;101167.12;130367;1267;108814;-78
2022/04/17 12:25:21;;;;;;;3.40;2.90;;;;;;;10.91;45.48;101163.85;130127;1267;289995;-77
2022/04/17 12:28:27;;;;;;;2.90;2.50;;;;;;;11.02;45.40;101159.58;130427;1268;108731;-77
2022/04/17 12:31:33;;;;;;;4.10;3.20;;;;;;;11.05;45.95;101153.02;130382;1268;108691;-76
2022/04/17 12:34:39;;;;;;;4.70;3.70;;;;;;;10.90;43.36;101161.29;130311;1268;109268;-77
2022/04/17 12:37:45;;;;;;;4.90;3.70;;;;;;;10.61;42.89;101159.35;130362;1268;108851;-76
2022/04/17 12:40:51;;;;;;;3.70;2.40;;;;;;;10.57;44.04;101157.48;130372;1267;109561;-76
2022/04/17 12:43:57;;;;;;;3.20;2.80;;;;;;;10.61;43.99;101152.02;130363;1268;109039;-76
2022/04/17 12:47:13;;;;;;;3.10;2.60;;;;;;;10.56;44.20;101145.65;130315;1268;108830;-77
2022/04/17 12:50:18;;;;;;;3.70;2.90;;;;;;;10.50;44.52;101140.39;130227;1268;108667;-77
2022/04/17 12:53:24;;;;;;;3.10;2.60;;;;;;;10.42;43.02;101141.17;130416;1268;106758;-78
2022/04/17 12:56:30;;;;;;;3.30;2.60;;;;;;;10.36;43.80;101143.27;130348;1268;108703;-78
2022/04/17 12:59:43;;;;;;;3.40;2.50;;;;;;;10.44;44.09;101127.51;130385;1267;108710;-78
2022/04/17 13:02:49;;;;;;;3.10;2.20;;;;;;;10.54;41.98;101120.77;130412;1268;106997;-79
2022/04/17 13:06:05;;;;;;;3.20;2.20;;;;;;;10.73;42.64;101113.09;130269;1268;108955;-78
2022/04/17 13:09:13;;;;;;;3.00;2.30;;;;;;;10.89;42.12;101112.98;130372;1268;109081;-78
2022/04/17 13:12:35;;;;;;;4.20;2.30;;;;;;;10.92;41.39;101107.70;130387;1267;108809;-78
2022/04/17 13:15:41;;;;;;;3.20;2.20;;;;;;;10.91;41.13;101106.38;130313;1267;108701;-78
2022/04/17 13:18:53;;;;;;;2.60;2.00;;;;;;;10.94;40.05;101103.39;130343;1267;108860;-76
2022/04/17 13:21:59;;;;;;;2.70;2.00;;;;;;;10.89;40.26;101100.96;130333;1268;107616;-76
2022/04/17 13:25:06;;;;;;;3.70;2.30;;;;;;;10.89;39.50;101100.66;130386;1267;108853;-77
2022/04/17 13:28:12;;;;;;;4.10;2.30;;;;;;;10.82;40.74;101092.39;130382;1268;108892;-77
2022/04/17 13:31:18;;;;;;;3.30;2.50;;;;;;;10.95;41.96;101081.45;130350;1267;108962;-78
2022/04/17 13:34:23;;;;;;;2.80;2.20;;;;;;;11.18;41.65;101079.92;130318;1267;108701;-77
2022/04/17 13:40:53;;;;;;;4.20;2.70;;;;;;;11.20;39.56;101075.54;130334;1268;108725;-77
2022/04/17 13:43:59;;;;;;;3.40;2.40;;;;;;;11.12;39.80;101077.97;130330;1267;108766;-77
2022/04/17 13:47:05;;;;;;;4.00;2.50;;;;;;;11.00;40.36;101077.40;130356;1267;108672;-77
2022/04/17 13:50:12;;;;;;;3.00;2.70;;;;;;;10.97;39.89;101071.81;130431;1267;109005;-79
2022/04/17 13:53:18;;;;;;;3.30;2.30;;;;;;;10.95;41.25;101067.39;130443;1267;108634;-78
2022/04/17 13:56:23;;;;;;;4.10;3.30;;;;;;;11.12;41.55;101059.69;130391;1268;108851;-78
2022/04/17 13:59:29;;;;;;;3.30;2.10;;;;;;;11.35;41.94;101050.98;130418;1268;108721;-78
2022/04/17 14:02:34;;;;;;;3.40;2.20;;;;;;;11.52;40.47;101045.48;130419;1267;109041;-78
2022/04/17 14:05:42;;;;;;;2.50;2.00;;;;;;;11.62;40.83;101048.91;130338;1267;108768;-77
2022/04/17 14:08:49;;;;;;;2.50;2.20;;;;;;;11.72;40.92;101042.60;130400;1267;108811;-78
2022/04/17 14:11:54;;;;;;;3.50;2.10;;;;;;;11.73;40.07;101040.96;130455;1267;108885;-77
2022/04/17 14:15:01;;;;;;;2.40;2.00;;;;;;;11.54;39.67;101043.07;130378;1267;108830;-77
2022/04/17 14:18:07;;;;;;;2.80;2.00;;;;;;;11.27;38.69;101045.88;130351;1267;108791;-78
2022/04/17 14:21:13;;;;;;;13.40;10.80;;;;;;;11.06;40.27;101038.70;130437;1267;108731;-77
2022/04/17 14:24:18;;;;;;;7.30;5.20;;;;;;;11.00;40.14;101032.09;130425;1267;108998;-77
2022/04/17 14:27:24;;;;;;;5.60;3.30;;;;;;;10.82;40.10;101033.33;130360;1268;108693;-76
2022/04/17 14:30:29;;;;;;;4.40;3.40;;;;;;;10.55;39.22;101032.97;130416;1267;108706;-76
2022/04/17 14:33:35;;;;;;;2.90;2.40;;;;;;;10.36;39.81;101026.46;130391;1267;109112;-76